DAL1041 KDTW-KDFW
Flight info
| Callsign | DAL1041 |
|---|---|
| Flight time | 2h 18m |
| Altitude | 36000 |
| Route | SNDRS3 BGHRT STL RZC FSM RRNET SEEVR4 |
| Aircraft | A320/M-SDE3FGHIRWY/LB1 |
Departure
| Time | 2026-05-04 14:40 |
|---|---|
| Airport | Detroit Metropolitan Wayne County Airport (KDTW) |
Arrival
| Time | 2026-05-04 16:58 |
|---|---|
| Airport | Dallas Fort Worth International Airport (KDFW) |
| Time | Latitude | Longitude | Altitude | Speed | Heading |
|---|---|---|---|---|---|
| 2026-05-04 13:58 | 42.20332 | -83.36249 | 646 ft | 0 kts | 118° |
| 2026-05-04 14:27 | 42.20333 | -83.36249 | 646 ft | 1 kts | 118° |
| 2026-05-04 14:27 | 42.20344 | -83.36277 | 646 ft | 4 kts | 118° |
| 2026-05-04 14:27 | 42.20354 | -83.36310 | 647 ft | 4 kts | 99° |
| 2026-05-04 14:27 | 42.20353 | -83.36344 | 646 ft | 4 kts | 58° |
| 2026-05-04 14:28 | 42.20342 | -83.36359 | 646 ft | 1 kts | 29° |
| 2026-05-04 14:28 | 42.20340 | -83.36361 | 646 ft | 0 kts | 29° |
| 2026-05-04 14:30 | 42.20341 | -83.36360 | 648 ft | 1 kts | 29° |
| 2026-05-04 14:30 | 42.20410 | -83.36309 | 647 ft | 10 kts | 29° |
| 2026-05-04 14:31 | 42.20486 | -83.36251 | 646 ft | 13 kts | 29° |
| 2026-05-04 14:31 | 42.20643 | -83.36137 | 646 ft | 11 kts | 28° |
| 2026-05-04 14:32 | 42.20817 | -83.36010 | 647 ft | 18 kts | 28° |
| 2026-05-04 14:32 | 42.20941 | -83.35917 | 647 ft | 22 kts | 28° |
| 2026-05-04 14:32 | 42.21064 | -83.35827 | 648 ft | 19 kts | 28° |
| 2026-05-04 14:32 | 42.21185 | -83.35739 | 646 ft | 21 kts | 29° |
| 2026-05-04 14:33 | 42.21321 | -83.35639 | 646 ft | 21 kts | 28° |
| 2026-05-04 14:33 | 42.21430 | -83.35561 | 646 ft | 18 kts | 27° |
| 2026-05-04 14:33 | 42.21529 | -83.35481 | 647 ft | 16 kts | 45° |
| 2026-05-04 14:33 | 42.21549 | -83.35349 | 646 ft | 14 kts | 88° |
| 2026-05-04 14:34 | 42.21552 | -83.35228 | 646 ft | 12 kts | 88° |
| 2026-05-04 14:34 | 42.21555 | -83.35122 | 646 ft | 10 kts | 88° |
| 2026-05-04 14:34 | 42.21585 | -83.35046 | 646 ft | 10 kts | 45° |
| 2026-05-04 14:34 | 42.21650 | -83.34963 | 646 ft | 16 kts | 43° |
| 2026-05-04 14:35 | 42.21743 | -83.34848 | 648 ft | 20 kts | 43° |
| 2026-05-04 14:35 | 42.21828 | -83.34728 | 648 ft | 14 kts | 61° |
| 2026-05-04 14:35 | 42.21839 | -83.34609 | 647 ft | 12 kts | 87° |
| 2026-05-04 14:35 | 42.21850 | -83.34511 | 647 ft | 10 kts | 57° |
| 2026-05-04 14:36 | 42.21918 | -83.34455 | 647 ft | 13 kts | 29° |
| 2026-05-04 14:36 | 42.22013 | -83.34385 | 646 ft | 18 kts | 28° |
| 2026-05-04 14:36 | 42.22133 | -83.34297 | 646 ft | 20 kts | 28° |
| 2026-05-04 14:36 | 42.22249 | -83.34212 | 646 ft | 18 kts | 28° |
| 2026-05-04 14:37 | 42.22356 | -83.34132 | 646 ft | 17 kts | 28° |
| 2026-05-04 14:37 | 42.22454 | -83.34060 | 646 ft | 15 kts | 28° |
| 2026-05-04 14:37 | 42.22539 | -83.33998 | 646 ft | 13 kts | 28° |
| 2026-05-04 14:37 | 42.22634 | -83.33928 | 647 ft | 18 kts | 28° |
| 2026-05-04 14:38 | 42.22746 | -83.33845 | 646 ft | 19 kts | 28° |
| 2026-05-04 14:38 | 42.22838 | -83.33774 | 647 ft | 9 kts | 29° |
| 2026-05-04 14:38 | 42.22848 | -83.33692 | 644 ft | 13 kts | 115° |
| 2026-05-04 14:38 | 42.22811 | -83.33626 | 645 ft | 10 kts | 172° |
| 2026-05-04 14:39 | 42.22779 | -83.33650 | 647 ft | 0 kts | 210° |
| 2026-05-04 14:39 | 42.22649 | -83.33751 | 648 ft | 56 kts | 208° |
| 2026-05-04 14:40 | 42.21246 | -83.34785 | 782 ft | 152 kts | 209° |
| 2026-05-04 14:40 | 42.20305 | -83.35482 | 1340 ft | 159 kts | 206° |
| 2026-05-04 14:40 | 42.19298 | -83.36204 | 2029 ft | 163 kts | 211° |
| 2026-05-04 14:40 | 42.18207 | -83.36708 | 2666 ft | 171 kts | 204° |
| 2026-05-04 14:41 | 42.16988 | -83.37183 | 2956 ft | 195 kts | 202° |
| 2026-05-04 14:41 | 42.15605 | -83.37718 | 3309 ft | 218 kts | 201° |
| 2026-05-04 14:41 | 42.12429 | -83.38919 | 4455 ft | 248 kts | 199° |
| 2026-05-04 14:42 | 42.09079 | -83.40169 | 6117 ft | 254 kts | 200° |
| 2026-05-04 14:42 | 42.07414 | -83.40969 | 6884 ft | 255 kts | 211° |
| 2026-05-04 14:42 | 42.05923 | -83.42267 | 7606 ft | 257 kts | 219° |
| 2026-05-04 14:43 | 42.04464 | -83.43701 | 8374 ft | 262 kts | 219° |
| 2026-05-04 14:43 | 42.02980 | -83.45162 | 9136 ft | 266 kts | 219° |
| 2026-05-04 14:43 | 42.01469 | -83.46647 | 9840 ft | 272 kts | 219° |
| 2026-05-04 14:43 | 41.99914 | -83.48172 | 10360 ft | 285 kts | 219° |
| 2026-05-04 14:44 | 41.98250 | -83.49815 | 10568 ft | 308 kts | 219° |
| 2026-05-04 14:44 | 41.96507 | -83.51587 | 11019 ft | 319 kts | 220° |
| 2026-05-04 14:44 | 41.94738 | -83.53417 | 11681 ft | 323 kts | 221° |
| 2026-05-04 14:44 | 41.92945 | -83.55284 | 12345 ft | 328 kts | 221° |
| 2026-05-04 14:45 | 41.91131 | -83.57170 | 13017 ft | 332 kts | 221° |
| 2026-05-04 14:45 | 41.89293 | -83.59079 | 13662 ft | 336 kts | 221° |
| 2026-05-04 14:45 | 41.87427 | -83.61011 | 14243 ft | 339 kts | 221° |
| 2026-05-04 14:45 | 41.85567 | -83.62932 | 14839 ft | 343 kts | 221° |
| 2026-05-04 14:46 | 41.83670 | -83.64883 | 15455 ft | 345 kts | 221° |
| 2026-05-04 14:46 | 41.81757 | -83.66845 | 16065 ft | 348 kts | 221° |
| 2026-05-04 14:46 | 41.79827 | -83.68826 | 16647 ft | 351 kts | 222° |
| 2026-05-04 14:46 | 41.77884 | -83.70826 | 17251 ft | 353 kts | 222° |
| 2026-05-04 14:47 | 41.75926 | -83.72835 | 17853 ft | 356 kts | 222° |
| 2026-05-04 14:47 | 41.73951 | -83.74858 | 18385 ft | 359 kts | 222° |
| 2026-05-04 14:47 | 41.71960 | -83.76890 | 18896 ft | 361 kts | 222° |
| 2026-05-04 14:47 | 41.69941 | -83.78921 | 19410 ft | 365 kts | 219° |
| 2026-05-04 14:48 | 41.67761 | -83.80726 | 19947 ft | 370 kts | 216° |
| 2026-05-04 14:48 | 41.65548 | -83.82505 | 20459 ft | 372 kts | 216° |
| 2026-05-04 14:48 | 41.63322 | -83.84292 | 20970 ft | 375 kts | 216° |
| 2026-05-04 14:48 | 41.61080 | -83.86090 | 21460 ft | 377 kts | 216° |
| 2026-05-04 14:49 | 41.58816 | -83.87903 | 21971 ft | 380 kts | 216° |
| 2026-05-04 14:49 | 41.56543 | -83.89721 | 22475 ft | 382 kts | 216° |
| 2026-05-04 14:49 | 41.54255 | -83.91553 | 22966 ft | 385 kts | 216° |
| 2026-05-04 14:49 | 41.51950 | -83.93398 | 23439 ft | 387 kts | 216° |
| 2026-05-04 14:50 | 41.49634 | -83.95251 | 23830 ft | 390 kts | 216° |
| 2026-05-04 14:50 | 41.47296 | -83.97120 | 24205 ft | 393 kts | 216° |
| 2026-05-04 14:50 | 41.44943 | -83.99000 | 24570 ft | 395 kts | 216° |
| 2026-05-04 14:50 | 41.42573 | -84.00889 | 24926 ft | 398 kts | 216° |
| 2026-05-04 14:51 | 41.40215 | -84.02766 | 25257 ft | 401 kts | 215° |
| 2026-05-04 14:51 | 41.37815 | -84.04678 | 25573 ft | 404 kts | 215° |
| 2026-05-04 14:51 | 41.35393 | -84.06608 | 25939 ft | 407 kts | 215° |
| 2026-05-04 14:51 | 41.32948 | -84.08551 | 26288 ft | 410 kts | 215° |
| 2026-05-04 14:52 | 41.30488 | -84.10501 | 26631 ft | 413 kts | 215° |
| 2026-05-04 14:52 | 41.28084 | -84.12587 | 26973 ft | 411 kts | 222° |
| 2026-05-04 14:52 | 41.25994 | -84.15156 | 27300 ft | 409 kts | 232° |
| 2026-05-04 14:52 | 41.24289 | -84.18166 | 27600 ft | 406 kts | 242° |
| 2026-05-04 14:53 | 41.23018 | -84.21501 | 27918 ft | 405 kts | 251° |
| 2026-05-04 14:53 | 41.21992 | -84.24996 | 28239 ft | 407 kts | 251° |
| 2026-05-04 14:53 | 41.20953 | -84.28500 | 28525 ft | 409 kts | 251° |
| 2026-05-04 14:53 | 41.19896 | -84.32028 | 28767 ft | 413 kts | 251° |
| 2026-05-04 14:54 | 41.18826 | -84.35575 | 29019 ft | 415 kts | 251° |
| 2026-05-04 14:54 | 41.18112 | -84.37943 | 29196 ft | 417 kts | 251° |
| 2026-05-04 14:54 | 41.16679 | -84.42693 | 29548 ft | 420 kts | 251° |
| 2026-05-04 14:54 | 41.15588 | -84.46307 | 29818 ft | 422 kts | 251° |
| 2026-05-04 14:55 | 41.14494 | -84.49931 | 30043 ft | 424 kts | 251° |
| 2026-05-04 14:55 | 41.13397 | -84.53568 | 30268 ft | 425 kts | 251° |
| 2026-05-04 14:55 | 41.12668 | -84.55981 | 30426 ft | 426 kts | 251° |
| 2026-05-04 14:55 | 41.11560 | -84.59638 | 30650 ft | 426 kts | 251° |
| 2026-05-04 14:56 | 41.10476 | -84.63299 | 30975 ft | 424 kts | 254° |
| 2026-05-04 14:56 | 41.09720 | -84.67059 | 31280 ft | 420 kts | 260° |
| 2026-05-04 14:56 | 41.09089 | -84.70837 | 31589 ft | 419 kts | 260° |
| 2026-05-04 14:56 | 41.08459 | -84.74605 | 31904 ft | 418 kts | 260° |
| 2026-05-04 14:57 | 41.07824 | -84.78372 | 32222 ft | 417 kts | 260° |
| 2026-05-04 14:57 | 41.07197 | -84.82083 | 32523 ft | 416 kts | 260° |
| 2026-05-04 14:57 | 41.06562 | -84.85822 | 32835 ft | 415 kts | 260° |
| 2026-05-04 14:57 | 41.05924 | -84.89563 | 33149 ft | 414 kts | 260° |
| 2026-05-04 14:58 | 41.05290 | -84.93275 | 33462 ft | 413 kts | 260° |
| 2026-05-04 14:58 | 41.04658 | -84.96976 | 33767 ft | 412 kts | 260° |
| 2026-05-04 14:58 | 41.04022 | -85.00684 | 34038 ft | 411 kts | 260° |
| 2026-05-04 14:58 | 41.03389 | -85.04372 | 34281 ft | 410 kts | 260° |
| 2026-05-04 14:59 | 41.02758 | -85.08050 | 34531 ft | 409 kts | 260° |
| 2026-05-04 14:59 | 41.02127 | -85.11715 | 34748 ft | 408 kts | 260° |
| 2026-05-04 14:59 | 41.00866 | -85.19039 | 35202 ft | 407 kts | 260° |
| 2026-05-04 15:00 | 41.00234 | -85.22686 | 35419 ft | 406 kts | 260° |
| 2026-05-04 15:00 | 40.99605 | -85.26322 | 35638 ft | 405 kts | 260° |
| 2026-05-04 15:00 | 40.98975 | -85.29951 | 35781 ft | 404 kts | 260° |
| 2026-05-04 15:01 | 40.97068 | -85.40920 | 35824 ft | 414 kts | 260° |
| 2026-05-04 15:01 | 40.95759 | -85.48388 | 35822 ft | 419 kts | 260° |
| 2026-05-04 15:02 | 40.94428 | -85.55939 | 35822 ft | 421 kts | 260° |
| 2026-05-04 15:02 | 40.93096 | -85.63482 | 35816 ft | 421 kts | 260° |
| 2026-05-04 15:03 | 40.91753 | -85.71038 | 35818 ft | 422 kts | 260° |
| 2026-05-04 15:03 | 40.90411 | -85.78588 | 35816 ft | 422 kts | 260° |
| 2026-05-04 15:04 | 40.89073 | -85.86094 | 35806 ft | 422 kts | 260° |
| 2026-05-04 15:04 | 40.88021 | -85.93708 | 35806 ft | 420 kts | 265° |
| 2026-05-04 15:05 | 40.87210 | -86.01347 | 35809 ft | 420 kts | 265° |
| 2026-05-04 15:05 | 40.86390 | -86.08985 | 35807 ft | 420 kts | 265° |
| 2026-05-04 15:06 | 40.85567 | -86.16618 | 35813 ft | 420 kts | 264° |
| 2026-05-04 15:07 | 40.84322 | -86.28071 | 35795 ft | 420 kts | 264° |
| 2026-05-04 15:07 | 40.83483 | -86.35702 | 35805 ft | 420 kts | 264° |
| 2026-05-04 15:08 | 40.82646 | -86.43274 | 35812 ft | 420 kts | 264° |
| 2026-05-04 15:08 | 40.81797 | -86.50904 | 35811 ft | 420 kts | 264° |
| 2026-05-04 15:09 | 40.80944 | -86.58537 | 35801 ft | 420 kts | 264° |
| 2026-05-04 15:09 | 40.80088 | -86.66166 | 35813 ft | 419 kts | 264° |
| 2026-05-04 15:10 | 40.78797 | -86.77592 | 35813 ft | 419 kts | 264° |
| 2026-05-04 15:11 | 40.77487 | -86.88995 | 35816 ft | 419 kts | 264° |
| 2026-05-04 15:11 | 40.76612 | -86.96540 | 35810 ft | 419 kts | 264° |
| 2026-05-04 15:12 | 40.75736 | -87.04141 | 35812 ft | 418 kts | 264° |
| 2026-05-04 15:12 | 40.74855 | -87.11734 | 35809 ft | 418 kts | 264° |
| 2026-05-04 15:13 | 40.73966 | -87.19314 | 35806 ft | 419 kts | 264° |
| 2026-05-04 15:13 | 40.73070 | -87.26903 | 35801 ft | 419 kts | 264° |
| 2026-05-04 15:14 | 40.72170 | -87.34493 | 35794 ft | 419 kts | 263° |
| 2026-05-04 15:14 | 40.71263 | -87.42073 | 35795 ft | 419 kts | 263° |
| 2026-05-04 15:15 | 40.70354 | -87.49659 | 35801 ft | 419 kts | 263° |
| 2026-05-04 15:15 | 40.69439 | -87.57234 | 35793 ft | 419 kts | 263° |
| 2026-05-04 15:16 | 40.68055 | -87.68591 | 35794 ft | 418 kts | 263° |
| 2026-05-04 15:17 | 40.66670 | -87.79904 | 35784 ft | 419 kts | 263° |
| 2026-05-04 15:17 | 40.65004 | -87.91195 | 35778 ft | 422 kts | 252° |
| 2026-05-04 15:18 | 40.61970 | -87.97862 | 35780 ft | 432 kts | 233° |
| 2026-05-04 15:19 | 40.55958 | -88.06731 | 35777 ft | 433 kts | 233° |
| 2026-05-04 15:19 | 40.49961 | -88.15613 | 35773 ft | 433 kts | 233° |
| 2026-05-04 15:20 | 40.45952 | -88.21534 | 35762 ft | 433 kts | 233° |
| 2026-05-04 15:20 | 40.41926 | -88.27442 | 35778 ft | 433 kts | 232° |
| 2026-05-04 15:21 | 40.37923 | -88.33303 | 35784 ft | 434 kts | 232° |
| 2026-05-04 15:22 | 40.31881 | -88.42144 | 35791 ft | 434 kts | 232° |
| 2026-05-04 15:22 | 40.25835 | -88.50983 | 35796 ft | 434 kts | 232° |
| 2026-05-04 15:23 | 40.21803 | -88.56864 | 35785 ft | 434 kts | 232° |
| 2026-05-04 15:23 | 40.17764 | -88.62736 | 35798 ft | 434 kts | 232° |
| 2026-05-04 15:24 | 40.09688 | -88.74419 | 35806 ft | 434 kts | 232° |
| 2026-05-04 15:25 | 40.05645 | -88.80264 | 35801 ft | 433 kts | 232° |
| 2026-05-04 15:26 | 39.99579 | -88.89021 | 35788 ft | 433 kts | 232° |
| 2026-05-04 15:26 | 39.93508 | -88.97744 | 35817 ft | 433 kts | 232° |
| 2026-05-04 15:27 | 39.87434 | -89.06445 | 35809 ft | 432 kts | 232° |
| 2026-05-04 15:28 | 39.81371 | -89.15119 | 35818 ft | 432 kts | 232° |
| 2026-05-04 15:29 | 39.75298 | -89.23794 | 35814 ft | 432 kts | 232° |
| 2026-05-04 15:30 | 39.61175 | -89.43824 | 35818 ft | 429 kts | 232° |
| 2026-05-04 15:31 | 39.55122 | -89.52355 | 35809 ft | 429 kts | 232° |
| 2026-05-04 15:32 | 39.45007 | -89.66590 | 35818 ft | 427 kts | 232° |
| 2026-05-04 15:34 | 39.34942 | -89.80705 | 35780 ft | 429 kts | 233° |
| 2026-05-04 15:34 | 39.28855 | -89.89187 | 35798 ft | 429 kts | 232° |
| 2026-05-04 15:35 | 39.22759 | -89.97671 | 35808 ft | 429 kts | 232° |
| 2026-05-04 15:36 | 39.16668 | -90.06095 | 35802 ft | 427 kts | 233° |
| 2026-05-04 15:36 | 39.13305 | -90.10764 | 35808 ft | 428 kts | 233° |
| 2026-05-04 15:37 | 39.09256 | -90.16377 | 35801 ft | 427 kts | 233° |
| 2026-05-04 15:37 | 39.05204 | -90.21975 | 35809 ft | 427 kts | 233° |
| 2026-05-04 15:38 | 39.01138 | -90.27574 | 35825 ft | 427 kts | 233° |
| 2026-05-04 15:38 | 38.97101 | -90.33127 | 35829 ft | 427 kts | 233° |
| 2026-05-04 15:39 | 38.93041 | -90.38700 | 35835 ft | 427 kts | 233° |
| 2026-05-04 15:40 | 38.86954 | -90.47039 | 35815 ft | 426 kts | 233° |
| 2026-05-04 15:40 | 38.82957 | -90.52639 | 35816 ft | 425 kts | 235° |
| 2026-05-04 15:41 | 38.79104 | -90.58378 | 35846 ft | 424 kts | 236° |
| 2026-05-04 15:41 | 38.75268 | -90.64126 | 35839 ft | 424 kts | 235° |
| 2026-05-04 15:42 | 38.71395 | -90.69849 | 35832 ft | 425 kts | 235° |
| 2026-05-04 15:42 | 38.67498 | -90.75542 | 35825 ft | 425 kts | 234° |
| 2026-05-04 15:43 | 38.63580 | -90.81223 | 35818 ft | 425 kts | 235° |
| 2026-05-04 15:43 | 38.59670 | -90.86908 | 35821 ft | 426 kts | 235° |
| 2026-05-04 15:44 | 38.55761 | -90.92603 | 35819 ft | 426 kts | 235° |
| 2026-05-04 15:44 | 38.51875 | -90.98263 | 35841 ft | 426 kts | 235° |
| 2026-05-04 15:45 | 38.47954 | -91.03961 | 35839 ft | 427 kts | 235° |
| 2026-05-04 15:45 | 38.44027 | -91.09640 | 35835 ft | 427 kts | 234° |
| 2026-05-04 15:46 | 38.40094 | -91.15320 | 35859 ft | 427 kts | 235° |
| 2026-05-04 15:46 | 38.36158 | -91.21002 | 35858 ft | 427 kts | 235° |
| 2026-05-04 15:47 | 38.32221 | -91.26663 | 35865 ft | 427 kts | 235° |
| 2026-05-04 15:47 | 38.28284 | -91.32307 | 35861 ft | 426 kts | 235° |
| 2026-05-04 15:48 | 38.24371 | -91.37926 | 35860 ft | 426 kts | 235° |
| 2026-05-04 15:48 | 38.18463 | -91.46392 | 35848 ft | 427 kts | 234° |
| 2026-05-04 15:49 | 38.14505 | -91.52031 | 35810 ft | 427 kts | 234° |
| 2026-05-04 15:49 | 38.10547 | -91.57665 | 35793 ft | 427 kts | 234° |
| 2026-05-04 15:50 | 38.06590 | -91.63308 | 35809 ft | 428 kts | 234° |
| 2026-05-04 15:50 | 38.02621 | -91.68951 | 35802 ft | 428 kts | 234° |
| 2026-05-04 15:51 | 37.98675 | -91.74545 | 35819 ft | 428 kts | 234° |
| 2026-05-04 15:51 | 37.94707 | -91.80166 | 35819 ft | 428 kts | 234° |
| 2026-05-04 15:52 | 37.90730 | -91.85776 | 35791 ft | 428 kts | 234° |
| 2026-05-04 15:52 | 37.86748 | -91.91390 | 35794 ft | 428 kts | 234° |
| 2026-05-04 15:53 | 37.82759 | -91.97009 | 35805 ft | 428 kts | 234° |
| 2026-05-04 15:53 | 37.78777 | -92.02610 | 35814 ft | 428 kts | 234° |
| 2026-05-04 15:54 | 37.74783 | -92.08209 | 35819 ft | 428 kts | 234° |
| 2026-05-04 15:54 | 37.70821 | -92.13766 | 35824 ft | 429 kts | 234° |
| 2026-05-04 15:55 | 37.66821 | -92.19361 | 35809 ft | 429 kts | 234° |
| 2026-05-04 15:55 | 37.62816 | -92.24944 | 35816 ft | 429 kts | 234° |
| 2026-05-04 15:56 | 37.58807 | -92.30529 | 35811 ft | 429 kts | 234° |
| 2026-05-04 15:56 | 37.54787 | -92.36119 | 35827 ft | 430 kts | 234° |
| 2026-05-04 15:57 | 37.50776 | -92.41700 | 35830 ft | 430 kts | 234° |
| 2026-05-04 15:57 | 37.46753 | -92.47281 | 35842 ft | 430 kts | 234° |
| 2026-05-04 15:58 | 37.42726 | -92.52854 | 35826 ft | 430 kts | 234° |
| 2026-05-04 15:58 | 37.38689 | -92.58417 | 35837 ft | 430 kts | 234° |
| 2026-05-04 15:59 | 37.34641 | -92.63975 | 35844 ft | 431 kts | 234° |
| 2026-05-04 15:59 | 37.30626 | -92.69495 | 35829 ft | 431 kts | 234° |
| 2026-05-04 16:00 | 37.26583 | -92.75062 | 35849 ft | 431 kts | 234° |
| 2026-05-04 16:00 | 37.22540 | -92.80610 | 35853 ft | 431 kts | 234° |
| 2026-05-04 16:01 | 37.18482 | -92.86169 | 35850 ft | 431 kts | 234° |
| 2026-05-04 16:01 | 37.14443 | -92.91692 | 35852 ft | 431 kts | 234° |
| 2026-05-04 16:02 | 37.10382 | -92.97233 | 35860 ft | 432 kts | 234° |
| 2026-05-04 16:03 | 37.04287 | -93.05550 | 35844 ft | 432 kts | 234° |
| 2026-05-04 16:03 | 37.00209 | -93.11079 | 35852 ft | 432 kts | 234° |
| 2026-05-04 16:04 | 36.96130 | -93.16606 | 35866 ft | 432 kts | 234° |
| 2026-05-04 16:04 | 36.90013 | -93.24903 | 35871 ft | 433 kts | 234° |
| 2026-05-04 16:05 | 36.85919 | -93.30435 | 35887 ft | 433 kts | 234° |
| 2026-05-04 16:06 | 36.79775 | -93.38705 | 35897 ft | 433 kts | 234° |
| 2026-05-04 16:07 | 36.71566 | -93.49743 | 35893 ft | 433 kts | 234° |
| 2026-05-04 16:08 | 36.63389 | -93.60712 | 35884 ft | 433 kts | 235° |
| 2026-05-04 16:09 | 36.53111 | -93.74422 | 35898 ft | 433 kts | 235° |
| 2026-05-04 16:10 | 36.44917 | -93.85320 | 35915 ft | 432 kts | 236° |
| 2026-05-04 16:11 | 36.36699 | -93.96199 | 35913 ft | 431 kts | 237° |
| 2026-05-04 16:12 | 36.23587 | -94.11597 | 35940 ft | 460 kts | 214° |
| 2026-05-04 16:13 | 36.17172 | -94.13502 | 35899 ft | 484 kts | 198° |
| 2026-05-04 16:13 | 36.10485 | -94.14657 | 35904 ft | 486 kts | 198° |
| 2026-05-04 16:14 | 35.97102 | -94.16986 | 35911 ft | 487 kts | 198° |
| 2026-05-04 16:16 | 35.80294 | -94.19942 | 35883 ft | 488 kts | 199° |
| 2026-05-04 16:17 | 35.63459 | -94.22887 | 35911 ft | 492 kts | 199° |
| 2026-05-04 16:18 | 35.49886 | -94.25238 | 35927 ft | 493 kts | 199° |
| 2026-05-04 16:19 | 35.39972 | -94.27763 | 35923 ft | 467 kts | 216° |
| 2026-05-04 16:19 | 35.34620 | -94.31725 | 35940 ft | 436 kts | 233° |
| 2026-05-04 16:20 | 35.24116 | -94.43155 | 35945 ft | 434 kts | 234° |
| 2026-05-04 16:22 | 35.12805 | -94.55365 | 35941 ft | 433 kts | 234° |
| 2026-05-04 16:23 | 34.99321 | -94.69896 | 35946 ft | 430 kts | 234° |
| 2026-05-04 16:25 | 34.85873 | -94.84302 | 35931 ft | 429 kts | 234° |
| 2026-05-04 16:26 | 34.69915 | -95.00812 | 35952 ft | 430 kts | 234° |
| 2026-05-04 16:28 | 34.58404 | -95.12470 | 35927 ft | 430 kts | 234° |
| 2026-05-04 16:29 | 34.42355 | -95.28751 | 35951 ft | 430 kts | 234° |
| 2026-05-04 16:31 | 34.30855 | -95.40328 | 35960 ft | 429 kts | 234° |
| 2026-05-04 16:31 | 34.24157 | -95.46990 | 35265 ft | 404 kts | 235° |
| 2026-05-04 16:32 | 34.17707 | -95.53488 | 34554 ft | 402 kts | 235° |
| 2026-05-04 16:33 | 34.13432 | -95.57765 | 33485 ft | 397 kts | 234° |
| 2026-05-04 16:33 | 34.09205 | -95.61970 | 32370 ft | 391 kts | 233° |
| 2026-05-04 16:34 | 34.05042 | -95.66113 | 31204 ft | 389 kts | 231° |
| 2026-05-04 16:34 | 34.02953 | -95.68190 | 30608 ft | 390 kts | 231° |
| 2026-05-04 16:35 | 33.96597 | -95.74496 | 28693 ft | 395 kts | 229° |
| 2026-05-04 16:35 | 33.90271 | -95.80812 | 26758 ft | 392 kts | 229° |
| 2026-05-04 16:36 | 33.88177 | -95.82914 | 26114 ft | 392 kts | 228° |
| 2026-05-04 16:36 | 33.84006 | -95.87084 | 24865 ft | 392 kts | 227° |
| 2026-05-04 16:37 | 33.79798 | -95.91270 | 23610 ft | 392 kts | 227° |
| 2026-05-04 16:37 | 33.77687 | -95.93356 | 22921 ft | 392 kts | 226° |
| 2026-05-04 16:37 | 33.73489 | -95.97483 | 21784 ft | 387 kts | 226° |
| 2026-05-04 16:38 | 33.69348 | -96.01553 | 20727 ft | 382 kts | 226° |
| 2026-05-04 16:39 | 33.63240 | -96.07551 | 19255 ft | 374 kts | 226° |
| 2026-05-04 16:39 | 33.59268 | -96.11454 | 18284 ft | 369 kts | 225° |
| 2026-05-04 16:40 | 33.55328 | -96.15318 | 17284 ft | 362 kts | 225° |
| 2026-05-04 16:40 | 33.51459 | -96.19111 | 16285 ft | 357 kts | 225° |
| 2026-05-04 16:41 | 33.47686 | -96.22799 | 15811 ft | 339 kts | 225° |
| 2026-05-04 16:41 | 33.42679 | -96.28472 | 14873 ft | 327 kts | 234° |
| 2026-05-04 16:42 | 33.38207 | -96.34661 | 13546 ft | 326 kts | 234° |
| 2026-05-04 16:43 | 33.35267 | -96.38703 | 12796 ft | 317 kts | 233° |
| 2026-05-04 16:43 | 33.32655 | -96.42678 | 12450 ft | 292 kts | 247° |
| 2026-05-04 16:43 | 33.31915 | -96.44901 | 12120 ft | 286 kts | 255° |
| 2026-05-04 16:44 | 33.29464 | -96.53668 | 11095 ft | 266 kts | 254° |
| 2026-05-04 16:45 | 33.28641 | -96.57865 | 10570 ft | 255 kts | 268° |
| 2026-05-04 16:46 | 33.28364 | -96.64216 | 9523 ft | 255 kts | 267° |
| 2026-05-04 16:46 | 33.28171 | -96.68417 | 8777 ft | 253 kts | 266° |
| 2026-05-04 16:47 | 33.27978 | -96.72573 | 8037 ft | 250 kts | 266° |
| 2026-05-04 16:47 | 33.27787 | -96.76700 | 7361 ft | 244 kts | 264° |
| 2026-05-04 16:48 | 33.27493 | -96.82809 | 6218 ft | 247 kts | 264° |
| 2026-05-04 16:48 | 33.27314 | -96.84807 | 6067 ft | 238 kts | 251° |
| 2026-05-04 16:49 | 33.25922 | -96.88292 | 6008 ft | 230 kts | 242° |
| 2026-05-04 16:49 | 33.24519 | -96.91568 | 6013 ft | 221 kts | 241° |
| 2026-05-04 16:50 | 33.23114 | -96.94832 | 6020 ft | 221 kts | 242° |
| 2026-05-04 16:50 | 33.21748 | -96.98035 | 6037 ft | 203 kts | 242° |
| 2026-05-04 16:51 | 33.20420 | -97.00807 | 6026 ft | 187 kts | 228° |
| 2026-05-04 16:51 | 33.19422 | -97.01781 | 6018 ft | 189 kts | 212° |
| 2026-05-04 16:51 | 33.16844 | -97.02430 | 5445 ft | 192 kts | 187° |
| 2026-05-04 16:52 | 33.14202 | -97.02473 | 4937 ft | 188 kts | 185° |
| 2026-05-04 16:52 | 33.12896 | -97.02481 | 4696 ft | 187 kts | 185° |
| 2026-05-04 16:53 | 33.10317 | -97.02496 | 4189 ft | 183 kts | 186° |
| 2026-05-04 16:53 | 33.06573 | -97.02516 | 3492 ft | 175 kts | 185° |
| 2026-05-04 16:54 | 33.05376 | -97.02523 | 3267 ft | 173 kts | 186° |
| 2026-05-04 16:55 | 33.00674 | -97.02548 | 2378 ft | 156 kts | 182° |
| 2026-05-04 16:55 | 32.98723 | -97.02558 | 2014 ft | 131 kts | 181° |
| 2026-05-04 16:56 | 32.96975 | -97.02569 | 1678 ft | 123 kts | 181° |
| 2026-05-04 16:56 | 32.94398 | -97.02581 | 1158 ft | 123 kts | 182° |
| 2026-05-04 16:57 | 32.93548 | -97.02592 | 968 ft | 122 kts | 181° |
| 2026-05-04 16:57 | 32.91808 | -97.02597 | 653 ft | 125 kts | 181° |
| 2026-05-04 16:58 | 32.90122 | -97.02607 | 573 ft | 18 kts | 181° |
| 2026-05-04 16:58 | 32.89999 | -97.02642 | 573 ft | 19 kts | 203° |
| 2026-05-04 16:59 | 32.89730 | -97.02803 | 571 ft | 21 kts | 185° |
| 2026-05-04 17:00 | 32.89390 | -97.02940 | 575 ft | 11 kts | 272° |
| 2026-05-04 17:00 | 32.89388 | -97.03279 | 583 ft | 11 kts | 258° |
| 2026-05-04 17:01 | 32.89244 | -97.03317 | 583 ft | 17 kts | 179° |
| 2026-05-04 17:01 | 32.89188 | -97.03437 | 584 ft | 6 kts | 287° |
| 2026-05-04 17:02 | 32.89172 | -97.03531 | 584 ft | 2 kts | 251° |
| 2026-05-04 17:02 | 32.89171 | -97.03535 | 584 ft | 0 kts | 251° |